Time;durP1;ratioP1;P1;durP2;ratioP2;P2;SDS_P1;SDS_P2;PMS_P1;PMS_P2;Temp;Humidity;BMP_temperature;BMP_pressure;BME280_temperature;BME280_humidity;BME280_pressure;Samples;Min_cycle;Max_cycle;Signal;HPM_P1;HPM_P2
2022/10/03 00:01:44;;;;;;;4.38;2.05;;;;;;;17.46;42.62;99634.78;4967163;28;20061;-86
2022/10/03 00:04:43;;;;;;;1.08;1.05;;;;;;;17.36;42.48;99631.69;4987952;28;20100;-84
2022/10/03 00:07:16;;;;;;;0.35;0.35;;;;;;;17.39;42.46;99627.97;4987579;28;20057;-85
2022/10/03 00:10:14;;;;;;;0.73;0.73;;;;;;;17.37;42.36;99627.19;4987759;28;20479;-85
2022/10/03 00:13:06;;;;;;;0.75;0.73;;;;;;;17.29;42.45;99616.88;4964420;28;20073;-85
2022/10/03 00:16:05;;;;;;;0.20;0.20;;;;;;;17.41;42.13;99617.25;4987275;28;20470;-85
2022/10/03 00:18:45;;;;;;;0.63;0.50;;;;;;;17.12;42.01;99571.44;4987483;28;20026;-83
2022/10/03 00:21:34;;;;;;;0.30;0.30;;;;;;;17.23;42.44;99598.47;4987696;28;20050;-85
2022/10/03 00:24:18;;;;;;;0.25;0.25;;;;;;;17.35;42.65;99610.41;4987117;28;20038;-83
2022/10/03 00:27:08;;;;;;;1.02;1.00;;;;;;;16.94;42.50;99573.97;4987108;28;20038;-83
2022/10/03 00:29:45;;;;;;;0.17;0.17;;;;;;;17.06;42.41;99575.22;4986884;28;20037;-83
2022/10/03 00:32:10;;;;;;;1.17;1.15;;;;;;;17.11;42.58;99599.00;4987182;28;20070;-85
2022/10/03 00:34:55;;;;;;;0.10;0.10;;;;;;;16.90;42.66;99572.38;4986969;28;20567;-85
2022/10/03 00:37:55;;;;;;;0.10;0.10;;;;;;;16.92;42.74;99586.50;4987138;28;20088;-84
2022/10/03 00:40:59;;;;;;;0.75;0.75;;;;;;;17.09;42.49;99601.75;4985912;28;20167;-84
2022/10/03 00:43:59;;;;;;;0.10;0.10;;;;;;;16.98;42.93;99585.38;4991054;28;20041;-85
2022/10/03 00:46:38;;;;;;;0.38;0.38;;;;;;;16.94;42.95;99586.41;4990912;28;20038;-83
2022/10/03 00:49:34;;;;;;;1.70;1.23;;;;;;;16.82;43.38;99591.31;4990773;28;20401;-84
2022/10/03 00:52:29;;;;;;;0.70;0.70;;;;;;;16.75;43.64;99596.97;4990817;28;20057;-84
2022/10/03 00:55:17;;;;;;;0.30;0.30;;;;;;;16.59;44.47;99594.06;4987574;28;20042;-86
2022/10/03 00:57:42;;;;;;;0.30;0.30;;;;;;;16.66;43.90;99584.91;4990828;28;20138;-84
2022/10/03 01:00:19;;;;;;;0.28;0.28;;;;;;;16.65;43.95;99565.41;4991347;28;20101;-85
2022/10/03 01:02:50;;;;;;;1.10;1.00;;;;;;;16.52;44.60;99579.28;4971212;28;20026;-83
2022/10/03 01:05:44;;;;;;;0.10;0.10;;;;;;;16.74;44.05;99571.25;4989148;28;20504;-84
2022/10/03 01:08:46;;;;;;;0.47;0.47;;;;;;;16.51;43.69;99557.09;4990461;28;20034;-84
2022/10/03 01:11:14;;;;;;;0.15;0.15;;;;;;;16.61;44.42;99574.44;4990588;28;20057;-84
2022/10/03 01:14:19;;;;;;;1.55;1.45;;;;;;;16.34;44.56;99511.69;4990128;28;20034;-84
2022/10/03 01:16:44;;;;;;;;;;;;;;;16.36;45.12;99558.63;4991231;28;20512;-85
2022/10/03 01:19:49;;;;;;;0.50;0.50;;;;;;;16.32;45.05;99541.03;4989955;28;19913;-84
2022/10/03 01:22:35;;;;;;;0.10;0.10;;;;;;;16.57;44.66;99559.50;4990508;28;20096;-84
2022/10/03 01:25:25;;;;;;;0.28;0.28;;;;;;;16.65;44.27;99562.75;4990753;28;20046;-84
2022/10/03 01:31:22;;;;;;;2.47;0.90;;;;;;;16.74;43.75;99557.94;4990278;28;20113;-84
2022/10/03 01:34:03;;;;;;;0.30;0.30;;;;;;;17.05;43.61;99564.66;4990003;28;20065;-83
2022/10/03 01:36:40;;;;;;;2.45;1.48;;;;;;;17.05;43.88;99546.00;4990409;28;20026;-84
2022/10/03 01:39:23;;;;;;;0.38;0.38;;;;;;;17.33;43.90;99564.28;4990307;28;20121;-84
2022/10/03 01:41:58;;;;;;;2.30;1.27;;;;;;;17.10;44.46;99560.84;4971290;28;20553;-84
2022/10/03 01:44:34;;;;;;;0.33;0.33;;;;;;;17.08;45.03;99556.50;4980929;28;20070;-84
2022/10/03 01:47:36;;;;;;;0.20;0.20;;;;;;;16.96;45.48;99561.47;4990129;28;20493;-85
2022/10/03 01:50:22;;;;;;;0.28;0.28;;;;;;;16.54;46.06;99506.38;4972281;28;20507;-84
2022/10/03 01:52:54;;;;;;;0.52;0.45;;;;;;;16.89;45.87;99562.66;4988631;28;20203;-84
2022/10/03 01:55:50;;;;;;;0.30;0.30;;;;;;;16.84;46.91;99559.28;4989465;28;20883;-84
2022/10/03 01:58:19;;;;;;;0.20;0.20;;;;;;;16.66;47.68;99555.59;4972531;28;20488;-85
2022/10/03 02:00:56;;;;;;;0.85;0.85;;;;;;;16.62;47.78;99556.66;4989417;28;20036;-84
2022/10/03 02:03:37;;;;;;;7.68;2.28;;;;;;;16.43;48.65;99551.25;4971742;28;20480;-84
2022/10/03 02:06:02;;;;;;;0.32;0.32;;;;;;;16.23;48.37;99560.03;4989507;28;20030;-84
2022/10/03 02:08:47;;;;;;;0.10;0.10;;;;;;;16.24;49.13;99561.78;4989538;28;20041;-84
2022/10/03 02:11:28;;;;;;;0.10;0.10;;;;;;;15.93;49.49;99508.00;4989330;28;20508;-84
2022/10/03 02:14:21;;;;;;;0.10;0.10;;;;;;;16.23;49.74;99554.72;4989378;28;20038;-83
2022/10/03 02:17:08;;;;;;;1.10;1.10;;;;;;;16.13;49.31;99548.91;4989222;28;20074;-84
2022/10/03 02:19:52;;;;;;;0.20;0.20;;;;;;;16.04;49.46;99560.78;4989089;28;20060;-84
2022/10/03 02:22:46;;;;;;;0.77;0.77;;;;;;;15.89;50.00;99551.59;4989106;28;20034;-84
2022/10/03 02:25:23;;;;;;;0.10;0.10;;;;;;;15.80;49.35;99538.69;4987334;28;20046;-84
2022/10/03 02:28:03;;;;;;;0.47;0.47;;;;;;;15.72;49.68;99567.31;4989060;28;20069;-84
2022/10/03 02:31:08;;;;;;;0.77;0.75;;;;;;;15.47;49.30;99565.56;4988452;28;20030;-85
2022/10/03 02:33:48;;;;;;;0.10;0.10;;;;;;;15.42;49.87;99572.00;4959274;28;20500;-86
2022/10/03 02:36:40;;;;;;;0.10;0.10;;;;;;;15.36;49.97;99568.63;4989110;28;20045;-84
2022/10/03 02:39:24;;;;;;;2.30;2.15;;;;;;;15.21;50.19;99577.16;4989195;28;20034;-84
2022/10/03 02:42:24;;;;;;;0.22;0.22;;;;;;;14.94;50.60;99539.19;4989281;28;20049;-84
2022/10/03 02:45:31;;;;;;;1.75;1.65;;;;;;;15.01;51.29;99557.50;4988947;28;20039;-86
2022/10/03 02:48:45;;;;;;;0.30;0.30;;;;;;;14.72;53.39;99566.47;4988988;28;20176;-84
2022/10/03 02:51:11;;;;;;;0.20;0.20;;;;;;;14.99;52.93;99561.97;4956192;28;20042;-85
2022/10/03 02:54:02;;;;;;;0.40;0.40;;;;;;;15.09;53.09;99569.63;4987449;28;20076;-84
2022/10/03 02:56:43;;;;;;;0.30;0.30;;;;;;;15.12;52.64;99557.13;4989013;28;20030;-84
2022/10/03 02:59:18;;;;;;;0.70;0.40;;;;;;;15.22;52.17;99558.50;4971189;28;20052;-85
2022/10/03 03:01:59;;;;;;;2.65;1.30;;;;;;;15.10;52.53;99550.13;4970485;28;20057;-89
2022/10/03 03:04:49;;;;;;;0.55;0.55;;;;;;;15.35;52.24;99548.31;4970838;28;20416;-89
2022/10/03 03:07:44;;;;;;;0.28;0.28;;;;;;;15.17;52.37;99549.00;4970875;28;20800;-88
2022/10/03 03:10:22;;;;;;;0.68;0.68;;;;;;;15.19;52.24;99558.63;4988912;28;20045;-90
2022/10/03 03:12:59;;;;;;;0.30;0.30;;;;;;;15.13;51.06;99537.59;4988723;28;20089;-86
2022/10/03 03:15:35;;;;;;;0.20;0.20;;;;;;;15.11;51.63;99543.91;4988458;28;20037;-87
2022/10/03 03:18:10;;;;;;;0.20;0.20;;;;;;;14.91;51.83;99547.25;4988169;28;20037;-86
2022/10/03 03:21:02;;;;;;;0.22;0.22;;;;;;;14.98;51.75;99504.50;4988365;28;20048;-87
2022/10/03 03:23:53;;;;;;;0.70;0.70;;;;;;;14.96;52.33;99535.53;4985824;28;20056;-87
2022/10/03 03:26:49;;;;;;;0.20;0.20;;;;;;;15.03;52.58;99538.84;4987227;28;20041;-87
2022/10/03 03:29:26;;;;;;;0.30;0.30;;;;;;;15.04;52.46;99517.56;4983332;28;20058;-86
2022/10/03 03:32:02;;;;;;;0.28;0.28;;;;;;;14.98;52.08;99507.16;4987824;28;20042;-86
2022/10/03 03:34:48;;;;;;;0.63;0.63;;;;;;;14.91;53.23;99513.59;4987368;28;20034;-85
2022/10/03 03:37:40;;;;;;;0.10;0.10;;;;;;;14.53;52.87;99517.56;4986437;28;20444;-88
2022/10/03 03:40:34;;;;;;;0.10;0.10;;;;;;;14.73;52.08;99506.28;4980704;28;20038;-86
2022/10/03 03:43:03;;;;;;;0.30;0.30;;;;;;;14.72;52.71;99502.75;4987776;28;20037;-86
2022/10/03 03:46:05;;;;;;;0.30;0.30;;;;;;;14.97;52.81;99508.06;4987275;28;20045;-85
2022/10/03 03:48:38;;;;;;;0.20;0.20;;;;;;;14.97;52.66;99500.09;4988025;28;20092;-88
2022/10/03 03:51:42;;;;;;;0.20;0.20;;;;;;;14.96;53.40;99492.19;4985709;28;20064;-92
2022/10/03 03:54:45;;;;;;;0.40;0.37;;;;;;;14.99;53.63;99487.63;4946703;28;20058;-91
2022/10/03 03:57:42;;;;;;;0.32;0.32;;;;;;;15.00;54.33;99483.19;4987183;28;20281;-87
2022/10/03 04:00:30;;;;;;;0.60;0.60;;;;;;;14.67;53.49;99464.88;4987408;28;20496;-88
2022/10/03 04:03:14;;;;;;;0.30;0.30;;;;;;;14.66;53.73;99485.25;4987665;28;20455;-87
2022/10/03 04:06:00;;;;;;;0.20;0.20;;;;;;;14.73;54.48;99474.41;4987406;28;20045;-87
2022/10/03 04:08:59;;;;;;;3.30;0.93;;;;;;;14.94;55.24;99499.34;4987051;28;20041;-85
2022/10/03 04:11:44;;;;;;;0.25;0.25;;;;;;;15.10;55.43;99491.69;4981612;28;20053;-87
2022/10/03 04:14:24;;;;;;;4.28;2.13;;;;;;;15.03;55.05;99486.59;4986999;28;20097;-87
2022/10/03 04:20:34;;;;;;;0.45;0.45;;;;;;;14.80;54.27;99452.03;4990137;28;20037;-88
2022/10/03 04:23:17;;;;;;;0.60;0.60;;;;;;;15.03;54.05;99472.44;4990889;28;20431;-89
2022/10/03 04:26:17;;;;;;;0.35;0.35;;;;;;;14.82;54.60;99437.78;4975733;28;20038;-85
2022/10/03 04:29:10;;;;;;;1.85;1.20;;;;;;;15.11;55.40;99480.13;4991255;28;20038;-87
2022/10/03 04:31:54;;;;;;;0.40;0.40;;;;;;;15.22;55.02;99478.78;4990458;28;20151;-86
2022/10/03 04:34:29;;;;;;;1.55;1.15;;;;;;;15.29;55.23;99474.13;4991484;28;20031;-86
2022/10/03 04:37:13;;;;;;;;;;;;;;;15.33;54.77;99456.28;4991821;28;20034;-88
2022/10/03 04:39:48;;;;;;;0.17;0.17;;;;;;;15.38;55.62;99446.31;4990997;28;19933;-89
2022/10/03 04:42:48;;;;;;;0.10;0.10;;;;;;;15.50;55.28;99447.66;4991426;28;20038;-87
2022/10/03 04:45:16;;;;;;;16.65;1.35;;;;;;;15.41;54.93;99451.53;4991769;28;20030;-91
2022/10/03 04:47:58;;;;;;;0.85;0.85;;;;;;;15.27;53.93;99459.16;4974847;28;20030;-90
2022/10/03 04:50:30;;;;;;;0.20;0.20;;;;;;;15.06;53.77;99434.25;4975929;28;20500;-87
2022/10/03 04:53:23;;;;;;;1.38;1.17;;;;;;;15.00;53.42;99478.72;4994560;28;20042;-88
2022/10/03 04:55:54;;;;;;;0.10;0.10;;;;;;;15.02;53.57;99449.47;4996720;28;20377;-92
2022/10/03 04:58:36;;;;;;;1.30;1.20;;;;;;;15.10;54.09;99499.66;4996866;28;20030;-91
2022/10/03 05:01:32;;;;;;;5.25;2.63;;;;;;;15.01;54.35;99464.53;5014043;28;20030;-91
2022/10/03 05:04:12;;;;;;;1.13;1.13;;;;;;;15.18;53.52;99450.63;4996093;28;20048;-91
2022/10/03 05:07:01;;;;;;;1.95;1.45;;;;;;;15.39;53.08;99456.88;4996191;28;20116;-91
2022/10/03 05:09:36;;;;;;;3.13;2.75;;;;;;;15.32;53.68;99462.50;4995478;28;20033;-89
2022/10/03 05:12:21;;;;;;;5.78;2.50;;;;;;;15.70;53.73;99474.31;4994844;28;20420;-91
2022/10/03 05:15:06;;;;;;;2.53;2.33;;;;;;;15.53;52.60;99443.06;4994114;28;20029;-91
2022/10/03 05:17:37;;;;;;;7.38;2.53;;;;;;;15.67;52.51;99478.88;4993365;28;20033;-90
2022/10/03 05:20:20;;;;;;;1.23;1.13;;;;;;;15.44;51.12;99453.19;5011296;28;20092;-90
2022/10/03 05:22:54;;;;;;;5.63;2.63;;;;;;;15.45;52.63;99442.50;4993293;28;20038;-90
2022/10/03 05:25:40;;;;;;;8.82;2.20;;;;;;;16.17;53.00;99481.31;5010370;28;20524;-89
2022/10/03 05:28:15;;;;;;;3.03;2.83;;;;;;;16.52;51.88;99483.44;5009989;28;20045;-88
2022/10/03 06:13:21;;;;;;;3.70;3.40;;;;;;;18.01;49.67;99475.78;3734733;27;3581248;-85
2022/10/03 06:15:58;;;;;;;0.93;0.93;;;;;;;17.90;49.59;99476.31;5124924;28;20039;-86
2022/10/03 06:19:02;;;;;;;9.32;4.13;;;;;;;18.11;49.69;99485.06;5108403;28;20483;-86
2022/10/03 06:22:12;;;;;;;7.97;2.33;;;;;;;18.13;48.35;99479.66;5126865;28;20034;-85
2022/10/03 06:25:15;;;;;;;6.50;5.45;;;;;;;17.93;48.18;99488.66;5125176;28;20027;-85
2022/10/03 06:28:08;;;;;;;3.75;2.65;;;;;;;17.72;49.72;99451.38;5126083;28;20035;-85
2022/10/03 06:30:55;;;;;;;3.15;2.92;;;;;;;18.03;49.12;99481.94;5112195;28;20063;-83
2022/10/03 06:33:29;;;;;;;2.03;1.33;;;;;;;18.21;48.96;99485.47;5126759;28;20022;-84
2022/10/03 06:36:19;;;;;;;1.50;1.40;;;;;;;18.00;47.08;99458.91;5125767;28;20420;-86
2022/10/03 06:39:12;;;;;;;0.98;0.98;;;;;;;17.98;47.32;99483.94;5124196;28;20031;-85
2022/10/03 06:41:50;;;;;;;1.77;1.67;;;;;;;17.87;47.30;99482.66;5124248;28;20067;-85
2022/10/03 06:44:33;;;;;;;0.80;0.80;;;;;;;18.00;46.80;99472.25;5110077;28;20031;-85
2022/10/03 06:47:30;;;;;;;0.60;0.60;;;;;;;18.43;45.97;99466.59;5110651;28;20637;-86
2022/10/03 06:50:17;;;;;;;3.72;2.38;;;;;;;18.81;44.91;99487.75;5110074;28;20122;-85
2022/10/03 06:53:06;;;;;;;1.08;1.00;;;;;;;18.86;43.86;99495.56;5110425;28;20028;-85
2022/10/03 06:55:47;;;;;;;0.75;0.75;;;;;;;19.30;43.76;99476.31;5091425;28;20469;-85
2022/10/03 06:58:37;;;;;;;32.70;2.20;;;;;;;19.26;42.31;99475.63;5110472;28;20019;-84
2022/10/03 07:01:11;;;;;;;1.75;1.65;;;;;;;19.57;42.40;99475.72;5110512;28;20114;-85
2022/10/03 07:03:53;;;;;;;1.42;1.33;;;;;;;20.04;40.75;99461.50;5110679;28;20424;-84
2022/10/03 07:06:44;;;;;;;0.45;0.45;;;;;;;20.46;40.31;99459.91;5110516;28;20027;-85
2022/10/03 07:09:48;;;;;;;1.27;1.17;;;;;;;20.87;39.80;99474.50;5110789;28;20084;-84
2022/10/03 07:12:59;;;;;;;1.27;1.17;;;;;;;20.86;40.72;99473.63;5110464;28;20031;-84
2022/10/03 07:16:08;;;;;;;1.15;1.08;;;;;;;21.54;37.75;99466.75;5083448;28;20139;-84
2022/10/03 07:19:11;;;;;;;3.75;2.38;;;;;;;21.56;37.22;99467.50;5071888;28;20497;-82
2022/10/03 07:22:13;;;;;;;3.75;2.60;;;;;;;21.71;38.84;99468.34;5110018;28;20028;-84
2022/10/03 07:25:24;;;;;;;7.13;2.55;;;;;;;21.67;36.40;99449.84;5109323;28;20388;-89
2022/10/03 07:28:11;;;;;;;0.93;0.93;;;;;;;21.68;38.04;99465.00;5109678;28;20033;-83
2022/10/03 07:31:03;;;;;;;2.65;1.83;;;;;;;21.62;36.86;99442.09;5109603;28;20501;-84
2022/10/03 07:33:54;;;;;;;2.72;0.80;;;;;;;21.55;38.51;99460.44;5109732;28;20041;-85
2022/10/03 07:39:31;;;;;;;1.63;1.52;;;;;;;21.62;38.61;99442.94;5112189;28;20088;-86
2022/10/03 07:42:24;;;;;;;4.57;3.00;;;;;;;21.86;35.92;99428.03;5111856;28;20031;-86
2022/10/03 07:45:24;;;;;;;3.25;1.23;;;;;;;22.15;37.64;99439.50;5109888;28;20397;-86
2022/10/03 07:48:23;;;;;;;2.58;1.98;;;;;;;22.26;37.10;99425.34;5109869;28;20046;-85
2022/10/03 07:50:55;;;;;;;2.70;2.50;;;;;;;22.67;38.81;99421.69;5109711;28;20035;-86
2022/10/03 07:53:38;;;;;;;0.10;0.10;;;;;;;23.29;35.15;99437.06;5109898;28;20110;-85
2022/10/03 07:56:24;;;;;;;1.65;1.30;;;;;;;23.17;35.18;99428.06;5090694;28;20028;-85
2022/10/03 07:59:20;;;;;;;5.72;2.15;;;;;;;23.70;35.18;99438.59;5109472;28;20035;-86
2022/10/03 08:02:36;;;;;;;0.65;0.65;;;;;;;23.38;34.57;99425.63;5090867;28;20107;-85
2022/10/03 08:05:01;;;;;;;0.70;0.70;;;;;;;23.24;34.48;99436.53;5109067;28;20046;-86
2022/10/03 08:07:54;;;;;;;1.38;1.27;;;;;;;23.28;38.22;99438.06;5109914;28;20043;-86
2022/10/03 08:10:50;;;;;;;1.25;0.57;;;;;;;23.78;33.65;99448.78;5109427;28;20417;-87
2022/10/03 08:13:32;;;;;;;0.63;0.60;;;;;;;24.26;34.18;99447.97;5108971;28;20032;-85
2022/10/03 08:16:22;;;;;;;0.45;0.30;;;;;;;24.26;33.71;99445.25;5109335;28;20448;-86
2022/10/03 08:19:14;;;;;;;0.90;0.73;;;;;;;24.43;33.47;99452.06;5108769;28;20035;-86
2022/10/03 08:21:54;;;;;;;1.65;1.33;;;;;;;24.58;32.28;99458.16;5104945;28;20036;-85
2022/10/03 08:24:48;;;;;;;0.20;0.20;;;;;;;24.31;32.97;99451.16;5109206;28;20427;-85
2022/10/03 08:27:29;;;;;;;0.00;0.00;;;;;;;23.83;34.04;99456.53;5109646;28;20043;-88
2022/10/03 08:30:18;;;;;;;2.70;2.50;;;;;;;23.95;33.91;99450.25;5110579;28;20031;-86
2022/10/03 08:33:09;;;;;;;0.30;0.25;;;;;;;24.17;32.92;99457.59;5111015;28;20424;-89
2022/10/03 08:36:06;;;;;;;0.35;0.35;;;;;;;24.43;33.05;99446.66;5109236;28;20055;-86
2022/10/03 08:38:35;;;;;;;1.23;1.13;;;;;;;24.27;32.93;99453.22;5108714;28;20409;-84
2022/10/03 08:41:42;;;;;;;1.98;0.95;;;;;;;24.12;32.17;99447.16;5109211;28;20066;-86
2022/10/03 08:44:25;;;;;;;2.78;1.35;;;;;;;23.60;32.87;99448.28;5090770;28;20031;-86
2022/10/03 08:47:01;;;;;;;0.60;0.38;;;;;;;23.78;33.48;99449.63;5110326;28;20028;-87
2022/10/03 08:49:35;;;;;;;0.63;0.63;;;;;;;23.64;33.70;99454.34;5109179;28;20031;-87
2022/10/03 08:52:10;;;;;;;0.60;0.60;;;;;;;23.60;33.70;99459.94;5091994;28;20035;-88
2022/10/03 08:54:44;;;;;;;5.50;1.50;;;;;;;23.48;34.88;99463.53;5109807;28;20069;-85
2022/10/03 08:57:37;;;;;;;0.47;0.47;;;;;;;23.34;34.68;99447.50;5109043;28;20040;-86
2022/10/03 09:00:19;;;;;;;1.65;0.73;;;;;;;23.14;35.09;99443.53;5110266;28;20453;-86
2022/10/03 09:03:22;;;;;;;0.20;0.20;;;;;;;22.97;36.66;99459.03;5109921;28;20031;-86
2022/10/03 09:06:30;;;;;;;0.77;0.70;;;;;;;22.82;35.85;99471.72;5093414;28;20424;-86
2022/10/03 09:09:28;;;;;;;0.25;0.25;;;;;;;22.84;35.28;99458.16;5090665;28;20032;-87
2022/10/03 09:12:09;;;;;;;0.32;0.32;;;;;;;22.88;35.84;99467.75;5095125;28;20046;-85
2022/10/03 09:14:47;;;;;;;0.40;0.40;;;;;;;22.79;37.54;99457.63;5095686;27;20058;-84
2022/10/03 09:17:50;;;;;;;3.85;0.95;;;;;;;23.00;35.58;99479.44;5106334;27;20043;-84
2022/10/03 09:20:31;;;;;;;0.98;0.82;;;;;;;22.99;36.77;99467.00;5100642;28;20084;-85
2022/10/03 09:23:30;;;;;;;0.40;0.30;;;;;;;22.58;37.75;99478.78;5082465;28;20032;-85
2022/10/03 09:26:05;;;;;;;4.68;2.92;;;;;;;22.62;37.40;99481.16;5097361;27;20043;-86
2022/10/03 09:28:30;;;;;;;14.20;1.88;;;;;;;22.62;36.56;99486.53;5081900;28;20480;-85
2022/10/03 09:31:15;;;;;;;1.20;1.10;;;;;;;23.02;36.05;99477.53;5092677;28;20043;-83
2022/10/03 09:34:19;;;;;;;;;;;;;;;23.20;35.21;99478.97;5086045;28;20097;-86
2022/10/03 09:37:03;;;;;;;0.30;0.30;;;;;;;23.29;37.20;99488.19;5003478;28;19953;-86
2022/10/03 09:40:06;;;;;;;1.05;0.98;;;;;;;23.31;36.30;99488.97;5002292;28;20123;-86
2022/10/03 09:42:53;;;;;;;1.27;1.17;;;;;;;23.29;35.20;99493.56;5070394;28;20048;-85
2022/10/03 09:45:52;;;;;;;0.98;0.98;;;;;;;23.16;36.62;99490.91;5086833;28;20038;-86
2022/10/03 09:48:18;;;;;;;1.92;1.80;;;;;;;23.04;36.84;99486.34;5088199;28;20077;-86
2022/10/03 09:51:08;;;;;;;0.10;0.10;;;;;;;22.55;37.69;99477.16;5084741;28;20024;-86
2022/10/03 09:54:18;;;;;;;0.47;0.47;;;;;;;22.13;38.76;99469.16;5085479;28;20036;-85
2022/10/03 09:57:10;;;;;;;1.45;0.40;;;;;;;21.95;38.98;99468.56;5021667;28;20033;-85
2022/10/03 09:59:35;;;;;;;0.60;0.60;;;;;;;21.84;40.11;99478.28;5021823;28;20051;-87
2022/10/03 10:02:38;;;;;;;0.40;0.35;;;;;;;21.52;41.42;99489.25;5044467;28;20044;-87
2022/10/03 10:05:51;;;;;;;0.73;0.73;;;;;;;21.14;42.67;99477.28;5085891;28;20103;-85
2022/10/03 10:08:54;;;;;;;0.60;0.60;;;;;;;21.34;42.80;99476.03;5084217;28;20044;-87
2022/10/03 10:11:44;;;;;;;3.83;2.40;;;;;;;21.51;42.55;99485.72;5085810;28;20036;-86
2022/10/03 10:14:41;;;;;;;3.92;3.55;;;;;;;21.53;42.36;99481.13;5085897;28;20091;-86
2022/10/03 10:17:52;;;;;;;0.52;0.52;;;;;;;21.41;42.63;99452.34;5086309;28;20039;-87
2022/10/03 10:20:36;;;;;;;1.88;0.57;;;;;;;21.66;42.61;99491.06;5071923;28;20046;-86
2022/10/03 10:23:09;;;;;;;0.73;0.73;;;;;;;21.49;43.32;99492.09;5090406;28;20032;-87
2022/10/03 10:26:26;;;;;;;0.75;0.68;;;;;;;21.26;44.26;99491.75;5090334;28;20109;-86
2022/10/03 10:28:58;;;;;;;0.10;0.10;;;;;;;21.02;46.45;99505.75;5066702;28;20054;-87
2022/10/03 10:32:01;;;;;;;0.82;0.80;;;;;;;20.57;47.15;99500.34;5090359;28;20066;-87
2022/10/03 10:35:14;;;;;;;0.68;0.68;;;;;;;20.11;48.69;99486.97;5090185;28;20028;-87
2022/10/03 10:38:16;;;;;;;0.98;0.90;;;;;;;20.18;50.31;99506.22;5082614;28;20091;-86
2022/10/03 10:41:00;;;;;;;0.10;0.10;;;;;;;20.13;52.29;99514.50;5089962;28;20024;-86
2022/10/03 10:43:34;;;;;;;2.47;1.30;;;;;;;19.87;52.50;99499.09;5089665;28;20031;-87
2022/10/03 10:46:33;;;;;;;1.45;1.35;;;;;;;19.69;51.34;99520.53;5089998;28;20032;-86
2022/10/03 10:49:01;;;;;;;0.90;0.90;;;;;;;19.44;50.48;99513.00;5086797;28;20051;-89
2022/10/03 10:51:55;;;;;;;0.50;0.50;;;;;;;19.32;50.98;99514.50;5089559;28;20028;-88
2022/10/03 10:55:02;;;;;;;4.43;1.38;;;;;;;19.18;50.50;99530.44;5090219;28;20031;-86
2022/10/03 10:58:03;;;;;;;0.10;0.10;;;;;;;19.09;51.09;99538.00;5089842;28;20708;-87
2022/10/03 11:00:47;;;;;;;0.10;0.10;;;;;;;19.20;49.85;99549.94;5065376;28;20040;-87
2022/10/03 11:03:21;;;;;;;0.53;0.53;;;;;;;19.25;49.77;99550.56;5089955;28;20032;-91
2022/10/03 11:06:24;;;;;;;0.17;0.17;;;;;;;19.08;51.58;99549.63;5089541;28;20478;-87
2022/10/03 11:09:11;;;;;;;0.52;0.52;;;;;;;19.11;52.07;99548.63;5071030;28;20032;-87
2022/10/03 11:12:08;;;;;;;0.10;0.10;;;;;;;18.94;54.19;99534.31;5071379;28;20406;-86
2022/10/03 11:14:51;;;;;;;0.30;0.30;;;;;;;18.93;57.30;99559.31;5089384;28;20567;-88
2022/10/03 11:17:42;;;;;;;4.35;0.57;;;;;;;18.41;61.11;99553.91;5089225;28;20039;-86
2022/10/03 11:20:46;;;;;;;0.15;0.15;;;;;;;18.33;65.59;99559.63;5089261;28;20077;-86
2022/10/03 11:23:29;;;;;;;0.10;0.10;;;;;;;18.53;67.94;99561.31;5089271;28;20234;-85
2022/10/03 11:26:13;;;;;;;0.25;0.25;;;;;;;18.64;67.82;99552.75;5089333;28;20036;-86
2022/10/03 11:29:12;;;;;;;0.57;0.50;;;;;;;18.65;66.39;99548.28;5088608;28;20032;-87
2022/10/03 11:32:06;;;;;;;1.38;0.55;;;;;;;19.12;67.47;99535.19;5089304;28;20118;-87
2022/10/03 11:35:03;;;;;;;2.30;0.90;;;;;;;19.57;65.82;99537.25;5088985;28;20119;-86
2022/10/03 11:37:31;;;;;;;0.17;0.17;;;;;;;19.89;64.43;99538.19;5070577;28;20508;-86
2022/10/03 11:40:27;;;;;;;0.10;0.10;;;;;;;20.05;62.24;99540.88;5089260;28;20054;-86
2022/10/03 11:43:07;;;;;;;0.38;0.38;;;;;;;19.51;62.94;99514.41;5088841;28;20086;-87
2022/10/03 11:45:44;;;;;;;0.40;0.30;;;;;;;19.55;63.56;99520.44;5088652;28;20044;-85
2022/10/03 11:48:30;;;;;;;0.20;0.20;;;;;;;19.47;62.78;99532.41;5088851;28;20036;-86
2022/10/03 11:51:04;;;;;;;0.25;0.25;;;;;;;19.07;63.99;99523.00;5088467;28;20028;-85
2022/10/03 11:53:36;;;;;;;0.43;0.43;;;;;;;18.91;65.82;99496.22;5088521;28;20098;-86
2022/10/03 11:56:46;;;;;;;0.10;0.10;;;;;;;18.97;64.76;99514.59;5088387;28;20028;-85
2022/10/03 11:59:50;;;;;;;0.10;0.10;;;;;;;18.67;64.08;99499.16;5087743;28;20625;-86
2022/10/03 12:02:24;;;;;;;0.10;0.10;;;;;;;19.12;64.03;99523.59;5025684;28;20902;-86
2022/10/03 12:04:57;;;;;;;7.18;0.95;;;;;;;18.83;63.69;99509.06;5079329;28;20047;-86
2022/10/03 12:10:50;;;;;;;0.20;0.20;;;;;;;19.08;63.63;99512.22;5088970;28;20105;-85
2022/10/03 12:13:27;;;;;;;0.45;0.40;;;;;;;19.14;62.92;99503.88;5088816;28;20520;-87
2022/10/03 12:15:57;;;;;;;0.10;0.10;;;;;;;19.16;60.97;99510.94;5089456;28;20042;-87
2022/10/03 12:18:43;;;;;;;0.20;0.20;;;;;;;19.48;62.17;99514.56;5091404;28;20107;-88
2022/10/03 12:21:20;;;;;;;0.52;0.50;;;;;;;19.35;58.21;99484.06;5128584;27;20039;-87
2022/10/03 12:24:02;;;;;;;0.20;0.20;;;;;;;19.35;59.76;99476.91;5131160;27;20027;-86
2022/10/03 12:27:06;;;;;;;0.57;0.57;;;;;;;19.55;58.95;99504.38;5130623;27;20039;-87
2022/10/03 12:29:37;;;;;;;0.47;0.47;;;;;;;19.58;59.28;99488.16;5054709;28;20056;-87
2022/10/03 12:32:18;;;;;;;3.42;1.13;;;;;;;19.80;57.82;99487.84;5052373;28;20048;-85
2022/10/03 12:35:18;;;;;;;1.50;0.80;;;;;;;20.10;57.00;99505.81;5047875;28;20044;-86
2022/10/03 12:38:06;;;;;;;0.15;0.15;;;;;;;20.25;53.94;99470.09;5050934;27;20153;-86
2022/10/03 12:41:03;;;;;;;4.30;1.23;;;;;;;20.53;54.29;99490.75;5111134;27;20027;-86
2022/10/03 12:44:03;;;;;;;0.43;0.43;;;;;;;20.78;53.09;99508.09;5087576;28;20569;-86
2022/10/03 12:46:38;;;;;;;0.88;0.85;;;;;;;21.07;51.93;99500.09;5087963;28;20031;-87
2022/10/03 12:49:28;;;;;;;0.10;0.10;;;;;;;21.41;52.04;99490.78;5087903;28;20071;-86
2022/10/03 12:51:58;;;;;;;0.73;0.65;;;;;;;21.07;50.37;99479.50;5087722;28;20031;-86
2022/10/03 12:54:35;;;;;;;1.35;1.00;;;;;;;21.14;50.66;99485.31;5087502;28;20036;-88
2022/10/03 12:57:44;;;;;;;0.03;0.03;;;;;;;21.24;50.72;99482.91;5087931;28;20700;-86
2022/10/03 13:00:19;;;;;;;1.00;1.00;;;;;;;21.08;50.33;99486.56;5087323;28;20036;-86
2022/10/03 13:03:12;;;;;;;0.20;0.20;;;;;;;20.95;49.62;99492.81;5087005;28;20114;-89
2022/10/03 13:06:11;;;;;;;0.40;0.40;;;;;;;21.27;49.74;99486.28;5087548;28;20036;-87
2022/10/03 13:08:45;;;;;;;1.52;1.10;;;;;;;21.35;49.40;99482.25;5087070;28;20028;-87
2022/10/03 13:11:14;;;;;;;0.00;0.00;;;;;;;21.06;50.19;99498.34;5087575;28;20024;-88
2022/10/03 13:14:08;;;;;;;0.35;0.35;;;;;;;21.20;49.26;99493.00;5093688;27;20035;-87
2022/10/03 13:17:04;;;;;;;0.47;0.47;;;;;;;20.80;46.83;99489.22;5072408;28;20048;-89
2022/10/03 13:19:45;;;;;;;0.20;0.20;;;;;;;20.24;47.83;99454.97;5088642;28;20036;-88
2022/10/03 13:22:16;;;;;;;7.05;2.13;;;;;;;20.60;46.96;99482.34;5107737;28;20489;-89
2022/10/03 13:24:57;;;;;;;1.17;1.17;;;;;;;20.75;47.04;99470.75;5107753;28;20039;-89
2022/10/03 13:27:23;;;;;;;0.65;0.60;;;;;;;20.81;47.35;99477.56;5086843;28;20070;-88
2022/10/03 13:30:13;;;;;;;0.85;0.85;;;;;;;20.89;47.67;99478.78;5086888;28;20036;-88
2022/10/03 13:32:45;;;;;;;0.28;0.28;;;;;;;20.99;48.14;99460.34;5087411;28;20067;-87
2022/10/03 13:38:45;;;;;;;2.90;2.67;;;;;;;20.96;47.00;99476.63;5086989;28;20142;-89
2022/10/03 13:41:23;;;;;;;1.83;1.47;;;;;;;21.11;46.72;99472.09;5087355;28;20055;-88
2022/10/03 13:43:58;;;;;;;0.22;0.22;;;;;;;21.35;47.47;99484.94;5086792;28;20028;-89
2022/10/03 13:46:41;;;;;;;0.30;0.30;;;;;;;21.61;45.93;99476.13;5086815;28;20795;-88
2022/10/03 13:49:47;;;;;;;0.57;0.57;;;;;;;21.43;45.69;99467.41;5070979;28;20117;-89
2022/10/03 13:52:17;;;;;;;1.65;1.55;;;;;;;21.24;45.50;99467.72;4988016;28;20046;-88
2022/10/03 13:54:57;;;;;;;1.58;1.48;;;;;;;21.14;44.98;99473.75;5000788;28;20807;-88
2022/10/03 13:57:27;;;;;;;1.08;1.02;;;;;;;20.95;46.02;99447.22;5055290;28;20075;-89
2022/10/03 14:00:09;;;;;;;0.32;0.32;;;;;;;20.99;45.95;99472.88;5088221;28;20035;-88
2022/10/03 14:03:07;;;;;;;0.10;0.10;;;;;;;21.16;45.72;99475.34;5089106;28;20032;-88
2022/10/03 14:06:23;;;;;;;0.55;0.47;;;;;;;20.97;45.12;99464.06;5089726;28;20511;-89